Time;durP1;ratioP1;P1;durP2;ratioP2;P2;SDS_P1;SDS_P2;PMS_P1;PMS_P2;Temp;Humidity;BMP_temperature;BMP_pressure;BME280_temperature;BME280_humidity;BME280_pressure;Samples;Min_cycle;Max_cycle;Signal;HPM_P1;HPM_P2
2021/10/01 00:02:22;;;;;;;7.55;5.20;;;;;;;17.47;42.95;102909.08;1771406;80;21085;-50
2021/10/01 00:04:49;;;;;;;14.75;5.70;;;;;;;17.44;43.45;102911.31;1775149;80;21052;-50
2021/10/01 00:07:18;;;;;;;7.67;5.22;;;;;;;17.41;43.97;102911.81;1768872;80;21464;-49
2021/10/01 00:09:44;;;;;;;7.95;5.47;;;;;;;17.38;44.74;102910.09;1768600;80;20955;-47
2021/10/01 00:12:13;;;;;;;12.90;5.90;;;;;;;17.32;45.14;102915.45;1766003;80;21016;-50
2021/10/01 00:14:40;;;;;;;7.25;5.47;;;;;;;17.27;45.41;102913.33;1770242;80;21073;-49
2021/10/01 00:17:09;;;;;;;11.33;5.67;;;;;;;17.21;45.84;102914.73;1771164;80;21537;-50
2021/10/01 00:19:37;;;;;;;10.68;6.00;;;;;;;17.16;46.17;102915.27;1768583;80;21017;-49
2021/10/01 00:22:04;;;;;;;7.45;5.70;;;;;;;17.12;46.53;102912.70;1769238;80;21084;-50
2021/10/01 00:24:31;;;;;;;9.68;5.35;;;;;;;17.09;46.63;102913.61;1768962;80;21014;-49
2021/10/01 00:26:59;;;;;;;11.15;5.50;;;;;;;17.07;46.75;102911.01;1770259;80;21026;-49
2021/10/01 00:29:26;;;;;;;10.58;5.58;;;;;;;17.06;46.93;102918.46;1766876;80;21018;-47
2021/10/01 00:31:53;;;;;;;10.20;6.15;;;;;;;17.06;46.99;102918.93;1765933;80;21021;-50
2021/10/01 00:34:20;;;;;;;11.83;6.37;;;;;;;17.06;47.04;102914.98;1765769;80;21505;-47
2021/10/01 00:36:47;;;;;;;9.80;5.00;;;;;;;17.03;47.09;102917.20;1768035;80;21037;-49
2021/10/01 00:39:15;;;;;;;11.50;5.72;;;;;;;17.06;47.06;102913.67;1768527;80;21020;-49
2021/10/01 00:41:42;;;;;;;9.03;6.10;;;;;;;17.05;47.01;102911.91;1769020;80;21537;-51
2021/10/01 00:44:10;;;;;;;7.50;5.92;;;;;;;17.02;47.17;102914.61;1769404;80;21011;-47
2021/10/01 00:46:37;;;;;;;8.43;5.40;;;;;;;16.99;47.35;102913.32;1768471;80;21057;-49
2021/10/01 00:49:05;;;;;;;9.93;6.40;;;;;;;16.95;47.46;102915.13;1767086;80;20982;-49
2021/10/01 00:51:35;;;;;;;8.83;5.53;;;;;;;16.90;47.60;102910.37;1765832;80;22226;-50
2021/10/01 00:54:02;;;;;;;8.10;5.55;;;;;;;16.85;47.64;102911.33;1765953;80;20963;-50
2021/10/01 00:56:29;;;;;;;7.00;5.45;;;;;;;16.83;47.63;102913.11;1768629;80;21034;-47
2021/10/01 00:58:57;;;;;;;8.08;5.97;;;;;;;16.80;47.56;102913.14;1766931;80;21553;-50
2021/10/01 01:01:24;;;;;;;9.53;6.37;;;;;;;16.77;47.58;102914.08;1767000;80;20986;-50
2021/10/01 01:04:01;;;;;;;12.00;5.92;;;;;;;16.75;47.71;102907.09;1765700;80;21037;-49
2021/10/01 01:06:53;;;;;;;11.50;6.10;;;;;;;16.74;47.66;102907.96;1765484;80;21037;-50
2021/10/01 01:09:38;;;;;;;9.40;6.03;;;;;;;16.72;47.83;102904.05;1656572;86;21128;-49
2021/10/01 01:12:21;;;;;;;10.70;7.05;;;;;;;16.70;47.94;102901.01;1649907;86;21596;-51
2021/10/01 01:15:13;;;;;;;10.23;6.70;;;;;;;16.65;48.03;102900.22;1656581;86;21071;-49
2021/10/01 01:17:53;;;;;;;12.68;7.17;;;;;;;16.62;48.12;102906.81;1654691;86;21084;-48
2021/10/01 01:20:50;;;;;;;9.28;6.92;;;;;;;16.55;48.20;102906.48;1654855;86;21822;-46
2021/10/01 01:24:08;;;;;;;8.83;6.40;;;;;;;16.48;48.45;102899.52;1654921;85;21118;-47
2021/10/01 01:27:03;;;;;;;11.85;7.08;;;;;;;16.44;48.76;102910.95;1651972;86;21162;-49
2021/10/01 01:30:02;;;;;;;7.10;6.25;;;;;;;16.37;48.91;102904.89;1654408;86;21106;-50
2021/10/01 01:32:33;;;;;;;9.05;6.03;;;;;;;16.34;48.95;102906.27;1656503;86;21001;-50
2021/10/01 01:35:05;;;;;;;12.65;6.58;;;;;;;16.32;49.03;102906.72;1654306;86;21136;-47
2021/10/01 01:37:56;;;;;;;12.93;6.85;;;;;;;16.32;49.24;102909.78;1654641;86;21093;-49
2021/10/01 01:40:27;;;;;;;8.58;5.95;;;;;;;16.29;49.26;102910.25;1656334;86;21091;-49
2021/10/01 01:42:56;;;;;;;7.72;5.75;;;;;;;16.29;49.24;102907.62;1653874;86;21088;-49
2021/10/01 01:45:23;;;;;;;7.83;6.20;;;;;;;16.27;49.39;102908.08;1654919;85;21048;-50
2021/10/01 01:47:50;;;;;;;8.33;6.67;;;;;;;16.23;49.61;102902.44;1655895;86;21605;-49
2021/10/01 01:50:18;;;;;;;14.73;6.45;;;;;;;16.21;49.64;102909.47;1634056;87;21077;-50
2021/10/01 01:52:45;;;;;;;8.88;6.53;;;;;;;16.17;49.76;102909.08;1655922;86;21025;-50
2021/10/01 01:55:14;;;;;;;12.95;6.08;;;;;;;16.14;49.67;102905.15;1634091;86;21028;-49
2021/10/01 01:57:47;;;;;;;9.83;6.22;;;;;;;16.11;49.87;102899.95;1655345;85;21540;-49
2021/10/01 02:00:14;;;;;;;9.63;5.83;;;;;;;16.09;49.87;102906.94;1655266;86;21512;-50
2021/10/01 02:02:52;;;;;;;7.22;5.55;;;;;;;16.08;49.95;102899.96;1646106;86;21591;-48
2021/10/01 02:05:20;;;;;;;12.13;6.90;;;;;;;16.06;49.97;102901.73;1682620;80;21005;-47
2021/10/01 02:07:48;;;;;;;10.45;6.30;;;;;;;16.08;49.74;102903.03;1779907;80;21056;-49
2021/10/01 02:10:15;;;;;;;7.78;5.80;;;;;;;16.04;49.76;102899.57;1751495;80;21045;-50
2021/10/01 02:12:44;;;;;;;9.33;5.92;;;;;;;16.02;49.79;102898.72;1791550;80;20974;-50
2021/10/01 02:15:13;;;;;;;7.92;5.97;;;;;;;15.98;49.84;102898.32;1764862;80;20982;-49
2021/10/01 02:17:41;;;;;;;7.85;5.20;;;;;;;15.97;49.92;102895.25;1776486;80;21029;-50
2021/10/01 02:20:09;;;;;;;8.98;5.97;;;;;;;15.95;49.90;102900.96;1748746;80;21441;-50
2021/10/01 02:22:37;;;;;;;9.60;5.70;;;;;;;15.91;49.83;102894.00;1784796;80;21084;-50
2021/10/01 02:25:06;;;;;;;7.75;5.60;;;;;;;15.85;50.03;102895.38;1773669;80;20998;-49
2021/10/01 02:27:48;;;;;;;9.30;5.75;;;;;;;15.84;50.26;102892.34;1768794;80;21022;-50
2021/10/01 02:30:17;;;;;;;7.92;6.03;;;;;;;15.84;50.42;102895.41;1766620;80;21502;-49
2021/10/01 02:33:05;;;;;;;7.40;5.70;;;;;;;15.85;50.34;102899.31;1771144;80;21463;-48
2021/10/01 02:35:33;;;;;;;8.60;5.28;;;;;;;15.86;50.32;102894.95;1767675;80;21569;-49
2021/10/01 02:38:01;;;;;;;7.78;5.67;;;;;;;15.85;50.37;102901.94;1765951;80;20978;-47
2021/10/01 02:40:27;;;;;;;12.80;6.20;;;;;;;15.83;50.42;102903.71;1765930;80;20970;-49
2021/10/01 02:42:53;;;;;;;8.43;5.97;;;;;;;15.83;50.19;102901.52;1768974;80;20970;-49
2021/10/01 02:45:21;;;;;;;8.40;5.85;;;;;;;15.80;50.05;102899.82;1769011;80;20994;-48
2021/10/01 02:47:48;;;;;;;7.85;5.92;;;;;;;15.79;50.18;102907.25;1769170;80;21021;-49
2021/10/01 02:50:18;;;;;;;8.60;6.00;;;;;;;15.76;50.30;102909.92;1769088;80;21549;-49
2021/10/01 02:52:51;;;;;;;7.72;5.87;;;;;;;15.73;50.28;102903.38;1769311;80;20990;-49
2021/10/01 02:55:47;;;;;;;10.18;6.08;;;;;;;15.70;50.16;102909.98;1765833;80;21022;-50
2021/10/01 02:58:37;;;;;;;7.05;5.28;;;;;;;15.67;50.28;102903.86;1712834;83;21062;-50
2021/10/01 03:01:07;;;;;;;12.13;5.80;;;;;;;15.64;50.46;102903.44;1712730;83;21684;-51
2021/10/01 03:03:40;;;;;;;8.10;5.78;;;;;;;15.62;50.53;102911.77;1712870;83;20986;-50
2021/10/01 03:06:07;;;;;;;8.73;6.08;;;;;;;15.59;50.67;102904.37;1712715;83;21545;-49
2021/10/01 03:08:35;;;;;;;7.67;5.78;;;;;;;15.59;50.76;102905.25;1711854;83;21006;-49
2021/10/01 03:11:04;;;;;;;8.45;6.10;;;;;;;15.57;50.75;102903.08;1711246;83;21045;-50
2021/10/01 03:13:32;;;;;;;12.55;6.33;;;;;;;15.55;50.62;102903.54;1711482;83;21598;-51
2021/10/01 03:16:00;;;;;;;13.65;6.40;;;;;;;15.54;50.60;102908.34;1658374;85;21144;-50
2021/10/01 03:18:28;;;;;;;10.55;6.10;;;;;;;15.52;50.37;102909.27;1696868;84;20959;-49
2021/10/01 03:20:55;;;;;;;10.45;6.25;;;;;;;15.47;50.40;102905.36;1696089;84;20975;-50
2021/10/01 03:23:22;;;;;;;10.72;6.80;;;;;;;15.42;50.53;102911.95;1695049;84;21153;-49
2021/10/01 03:25:49;;;;;;;7.42;6.33;;;;;;;15.38;50.64;102911.50;1705784;84;21490;-47
2021/10/01 03:28:16;;;;;;;11.08;6.95;;;;;;;15.35;50.76;102909.36;1695344;84;21022;-47
2021/10/01 03:30:45;;;;;;;10.25;6.85;;;;;;;15.32;50.85;102917.23;1696395;84;21141;-51
2021/10/01 03:33:14;;;;;;;8.13;5.70;;;;;;;15.28;50.80;102919.45;1712489;83;20990;-50
2021/10/01 03:35:42;;;;;;;9.70;6.35;;;;;;;15.25;50.99;102914.24;1716367;83;21529;-50
2021/10/01 03:38:10;;;;;;;11.40;6.53;;;;;;;15.22;50.84;102914.25;1695065;83;21070;-49
2021/10/01 03:40:41;;;;;;;11.93;6.55;;;;;;;15.19;50.87;102912.51;1711280;83;21061;-50
2021/10/01 03:43:07;;;;;;;12.50;6.25;;;;;;;15.17;50.78;102915.58;1710980;83;21221;-51
2021/10/01 03:45:35;;;;;;;6.33;5.72;;;;;;;15.16;50.78;102908.61;1718919;83;21065;-50
2021/10/01 03:48:03;;;;;;;7.20;6.10;;;;;;;15.14;50.55;102916.05;1711704;83;21550;-49
2021/10/01 03:50:33;;;;;;;9.98;6.33;;;;;;;15.12;50.73;102916.50;1688449;83;21021;-50
2021/10/01 03:53:01;;;;;;;11.48;6.20;;;;;;;15.11;50.63;102913.44;1711337;83;21017;-47
2021/10/01 03:55:28;;;;;;;8.50;6.65;;;;;;;15.08;50.69;102914.78;1754820;80;20959;-50
2021/10/01 03:57:56;;;;;;;9.60;6.67;;;;;;;15.05;50.58;102920.03;1768886;80;20991;-49
2021/10/01 04:00:24;;;;;;;7.85;6.83;;;;;;;15.02;50.58;102918.28;1768229;80;21470;-49
2021/10/01 04:02:50;;;;;;;11.63;6.92;;;;;;;14.99;50.66;102922.69;1765824;80;20946;-51
2021/10/01 04:05:18;;;;;;;11.38;6.83;;;;;;;14.97;50.62;102936.25;1765901;80;21321;-51
2021/10/01 04:07:45;;;;;;;9.55;6.70;;;;;;;14.93;50.52;102929.28;1768629;80;21048;-50
2021/10/01 04:10:14;;;;;;;9.48;6.85;;;;;;;14.90;50.44;102932.78;1767532;80;21595;-49
2021/10/01 04:12:44;;;;;;;10.10;6.60;;;;;;;14.90;50.35;102934.55;1766957;80;21041;-50
2021/10/01 04:15:13;;;;;;;7.12;6.37;;;;;;;14.89;50.37;102934.11;1772730;80;21470;-50
2021/10/01 04:17:40;;;;;;;8.73;6.58;;;;;;;14.87;50.32;102934.55;1762540;80;21040;-49
2021/10/01 04:20:08;;;;;;;8.38;6.67;;;;;;;14.85;50.40;102940.24;1768782;80;21025;-49
2021/10/01 04:22:36;;;;;;;10.13;6.85;;;;;;;14.81;50.26;102935.89;1780851;80;21046;-49
2021/10/01 04:25:08;;;;;;;9.68;6.45;;;;;;;14.77;50.60;102939.41;1763479;80;21006;-50
2021/10/01 04:27:36;;;;;;;10.13;7.60;;;;;;;14.74;50.75;102944.22;1767320;80;20985;-50
2021/10/01 04:30:05;;;;;;;10.23;7.42;;;;;;;14.71;50.81;102945.56;1768848;80;21084;-50
2021/10/01 04:32:36;;;;;;;9.15;7.12;;;;;;;14.67;50.96;102952.53;1769079;80;21040;-50
2021/10/01 04:35:06;;;;;;;10.53;7.08;;;;;;;14.68;50.93;102954.30;1769207;80;21501;-50
2021/10/01 04:37:32;;;;;;;13.38;7.03;;;;;;;14.71;51.13;102944.68;1769211;80;20983;-50
2021/10/01 04:39:59;;;;;;;6.97;6.08;;;;;;;14.74;51.21;102949.89;1768959;80;21050;-49
2021/10/01 04:42:26;;;;;;;10.43;6.85;;;;;;;14.74;51.41;102949.89;1766462;80;21072;-49
2021/10/01 04:44:53;;;;;;;11.12;7.03;;;;;;;14.73;51.34;102948.16;1770216;80;21065;-51
2021/10/01 04:47:21;;;;;;;13.35;7.20;;;;;;;14.75;51.36;102950.34;1767030;80;20982;-50
2021/10/01 04:49:48;;;;;;;8.28;6.67;;;;;;;14.75;51.34;102951.65;1769179;80;21529;-50
2021/10/01 04:52:14;;;;;;;8.70;7.08;;;;;;;14.75;51.17;102953.84;1776040;80;21280;-50
2021/10/01 04:54:42;;;;;;;9.88;6.87;;;;;;;14.75;51.08;102952.96;1775950;80;20990;-50
2021/10/01 04:57:09;;;;;;;10.80;6.67;;;;;;;14.74;50.98;102959.06;1767483;80;20990;-49
2021/10/01 04:59:37;;;;;;;8.25;6.33;;;;;;;14.72;50.95;102946.41;1775708;80;21004;-51
2021/10/01 05:02:22;;;;;;;9.38;7.15;;;;;;;14.71;50.87;102952.11;1769580;80;21043;-48
2021/10/01 05:04:58;;;;;;;8.93;6.70;;;;;;;14.70;50.80;102956.91;1767618;80;21534;-49
2021/10/01 05:07:44;;;;;;;12.45;7.22;;;;;;;14.69;50.84;102966.51;1766791;80;21025;-50
2021/10/01 05:10:28;;;;;;;10.68;7.33;;;;;;;14.67;51.01;102964.33;1767503;80;21040;-49
2021/10/01 05:13:04;;;;;;;8.10;7.15;;;;;;;14.70;50.86;102964.77;1716053;83;21027;-52
2021/10/01 05:15:50;;;;;;;7.97;6.30;;;;;;;14.71;50.96;102966.95;1723117;83;21534;-51
2021/10/01 05:18:23;;;;;;;12.60;7.28;;;;;;;14.74;51.13;102968.23;1678164;85;21034;-49
2021/10/01 05:20:50;;;;;;;8.00;6.80;;;;;;;14.80;50.98;102961.23;1678256;85;21026;-51
2021/10/01 05:23:22;;;;;;;8.80;6.65;;;;;;;14.85;50.97;102966.45;1673312;85;21082;-49
2021/10/01 05:25:48;;;;;;;10.78;7.05;;;;;;;14.90;51.00;102968.63;1678188;85;21054;-49
2021/10/01 05:28:15;;;;;;;8.73;7.00;;;;;;;14.93;50.90;102968.17;1678004;85;21090;-49
2021/10/01 05:30:41;;;;;;;9.63;7.45;;;;;;;14.97;50.76;102974.26;1678065;85;21613;-47
2021/10/01 05:33:11;;;;;;;10.50;6.87;;;;;;;14.99;50.48;102969.88;1677770;85;21070;-49
2021/10/01 05:35:37;;;;;;;10.15;7.33;;;;;;;15.01;50.12;102978.61;1678170;85;21074;-52
2021/10/01 05:38:04;;;;;;;9.55;7.65;;;;;;;14.98;50.23;102983.88;1678180;85;21018;-48
2021/10/01 05:40:30;;;;;;;9.25;7.67;;;;;;;14.98;50.42;102981.27;1678099;85;21038;-49
2021/10/01 05:42:58;;;;;;;9.18;7.45;;;;;;;14.99;50.61;102982.98;1678115;85;21011;-49
2021/10/01 05:45:24;;;;;;;11.90;7.00;;;;;;;15.03;50.48;102987.34;1678514;85;21539;-51
2021/10/01 05:48:11;;;;;;;11.03;7.40;;;;;;;15.05;50.55;102985.58;1677971;85;21031;-49
2021/10/01 05:50:59;;;;;;;9.13;6.85;;;;;;;15.09;50.52;102987.30;1667271;85;21005;-51
2021/10/01 05:56:28;;;;;;;12.88;7.80;;;;;;;15.17;50.21;102979.83;1745027;80;20986;-51
2021/10/01 05:59:07;;;;;;;9.60;7.45;;;;;;;15.19;50.33;102986.37;1769124;80;20989;-48
2021/10/01 06:01:35;;;;;;;8.20;7.35;;;;;;;15.21;50.64;102980.67;1768961;80;21069;-51
2021/10/01 06:04:03;;;;;;;8.98;6.50;;;;;;;15.24;50.77;102978.93;1768931;80;21028;-48
2021/10/01 06:06:29;;;;;;;8.60;5.78;;;;;;;15.31;50.77;102980.62;1769054;80;21050;-50
2021/10/01 06:08:56;;;;;;;9.13;6.85;;;;;;;15.39;50.75;102972.72;1766454;80;21474;-48
2021/10/01 06:11:23;;;;;;;9.38;6.70;;;;;;;15.47;50.61;102969.64;1767409;80;21364;-51
2021/10/01 06:13:51;;;;;;;6.95;6.25;;;;;;;15.55;50.70;102966.52;1769379;80;21026;-49
2021/10/01 06:16:18;;;;;;;7.80;6.67;;;;;;;15.66;50.46;102972.53;1779869;80;21034;-51
2021/10/01 06:18:46;;;;;;;12.58;6.75;;;;;;;15.79;50.43;102979.88;1770197;80;21530;-48
2021/10/01 06:21:14;;;;;;;14.85;7.50;;;;;;;15.91;50.44;102979.80;1768641;79;20978;-51
2021/10/01 06:23:42;;;;;;;7.78;5.20;;;;;;;16.06;50.42;102976.59;1770316;80;21013;-48
2021/10/01 06:26:08;;;;;;;6.22;4.00;;;;;;;16.22;50.04;102972.92;1773079;80;21013;-52
2021/10/01 06:28:35;;;;;;;3.77;3.30;;;;;;;16.40;48.75;102972.31;1773213;80;21478;-51
2021/10/01 06:31:02;;;;;;;8.50;3.75;;;;;;;16.55;48.24;102975.66;1772777;80;21066;-52
2021/10/01 06:33:31;;;;;;;7.80;3.20;;;;;;;16.72;47.75;102977.66;1769217;80;21091;-50
2021/10/01 06:35:59;;;;;;;4.78;3.40;;;;;;;16.87;47.65;102977.48;1770294;80;21008;-51
2021/10/01 06:38:26;;;;;;;5.62;3.22;;;;;;;17.02;47.70;102978.58;1773683;80;21019;-46
2021/10/01 06:40:52;;;;;;;4.62;3.12;;;;;;;17.17;47.45;102973.99;1780261;80;21525;-49
2021/10/01 06:43:19;;;;;;;5.75;3.52;;;;;;;17.31;47.22;102979.48;1766817;80;21014;-46
2021/10/01 06:45:52;;;;;;;5.75;3.42;;;;;;;17.44;46.85;102967.90;1774862;80;21041;-47
2021/10/01 06:48:34;;;;;;;4.50;3.37;;;;;;;17.58;46.38;102976.48;1774538;80;21058;-46
2021/10/01 06:51:21;;;;;;;7.78;3.85;;;;;;;17.69;46.33;102975.87;1775305;80;21545;-49
2021/10/01 07:24:09;;;;;;;7.03;4.15;;;;;;;18.15;45.22;102975.09;1770849;80;21521;-50
2021/10/01 08:20:51;;;;;;;8.45;3.90;;;;;;;18.63;41.84;102984.28;1747236;81;21044;-52
2021/10/01 08:23:18;;;;;;;5.15;3.05;;;;;;;18.67;41.37;102981.12;1747577;81;21000;-49
2021/10/01 08:25:45;;;;;;;8.03;2.90;;;;;;;18.69;40.95;102988.11;1770523;80;21029;-50
2021/10/01 08:28:11;;;;;;;6.53;3.40;;;;;;;18.71;40.72;102980.64;1774665;80;21050;-50
2021/10/01 08:30:40;;;;;;;3.27;2.85;;;;;;;18.74;41.06;102986.70;1728056;83;21041;-47
2021/10/01 08:33:07;;;;;;;3.77;2.90;;;;;;;18.78;40.70;102980.47;1729607;83;21493;-51
2021/10/01 08:35:33;;;;;;;4.55;2.83;;;;;;;18.81;39.95;102983.06;1729637;83;21565;-50
2021/10/01 08:38:00;;;;;;;4.40;3.08;;;;;;;18.85;39.99;102988.69;1729949;83;20997;-47
2021/10/01 08:40:27;;;;;;;6.05;2.77;;;;;;;18.89;40.27;102989.05;1729681;83;21057;-47
2021/10/01 08:42:54;;;;;;;4.92;2.85;;;;;;;18.91;39.71;102987.69;1728489;83;21072;-50
2021/10/01 08:45:25;;;;;;;6.35;2.90;;;;;;;18.95;39.71;102990.23;1729617;83;21512;-49
2021/10/01 08:47:56;;;;;;;6.12;2.58;;;;;;;18.97;39.96;102988.43;1729564;83;21012;-48
2021/10/01 08:50:21;;;;;;;3.50;2.50;;;;;;;19.00;39.73;102996.73;1726168;83;21013;-47
2021/10/01 08:52:50;;;;;;;2.83;2.50;;;;;;;19.02;39.23;102994.45;1729710;83;21009;-50
2021/10/01 08:55:17;;;;;;;2.65;2.37;;;;;;;19.03;38.47;102990.94;1729586;83;21064;-48
2021/10/01 08:57:43;;;;;;;4.87;2.45;;;;;;;19.05;38.46;102986.48;1729865;83;21021;-51
2021/10/01 09:00:15;;;;;;;3.55;2.60;;;;;;;19.09;38.43;102993.44;1705625;83;21564;-50
2021/10/01 09:02:42;;;;;;;4.03;2.40;;;;;;;19.12;38.09;102998.66;1729705;83;21505;-50
2021/10/01 09:05:09;;;;;;;3.50;2.90;;;;;;;19.13;37.92;102997.75;1716899;83;21005;-50
2021/10/01 09:07:36;;;;;;;5.97;3.22;;;;;;;19.16;38.04;102992.42;1741299;80;21342;-50
2021/10/01 09:10:10;;;;;;;4.05;2.40;;;;;;;19.20;37.77;102995.41;1770146;80;21021;-50
2021/10/01 09:12:37;;;;;;;4.33;2.52;;;;;;;19.22;37.45;102992.28;1775701;80;20990;-48
2021/10/01 09:15:05;;;;;;;4.12;2.47;;;;;;;19.24;37.25;103001.03;1774464;80;21014;-50
2021/10/01 09:17:33;;;;;;;11.78;2.40;;;;;;;19.24;37.08;102998.39;1739788;80;21489;-50
2021/10/01 09:20:00;;;;;;;6.83;2.35;;;;;;;19.25;37.43;103000.55;1767273;80;21021;-47
2021/10/01 09:22:33;;;;;;;4.95;2.37;;;;;;;19.27;37.31;102998.30;1769111;80;21014;-49
2021/10/01 09:25:23;;;;;;;4.78;2.72;;;;;;;19.33;37.09;102999.52;1761257;80;21108;-47
2021/10/01 09:27:55;;;;;;;5.05;2.83;;;;;;;19.37;36.66;102990.62;1774550;80;21048;-47
2021/10/01 09:30:22;;;;;;;8.50;3.15;;;;;;;19.43;36.85;102998.40;1770645;80;21033;-48
2021/10/01 09:33:11;;;;;;;6.05;2.72;;;;;;;19.46;36.45;103002.30;1774542;80;21017;-50
2021/10/01 09:35:41;;;;;;;6.10;3.22;;;;;;;19.51;36.38;103005.29;1774289;80;21005;-50
2021/10/01 09:38:11;;;;;;;5.15;2.60;;;;;;;19.55;36.14;103009.59;1774611;80;21453;-50
2021/10/01 09:40:38;;;;;;;7.40;2.60;;;;;;;19.58;36.38;103008.22;1777711;80;21003;-50
2021/10/01 09:43:05;;;;;;;7.00;2.70;;;;;;;19.63;36.26;103010.28;1773971;80;22449;-48
2021/10/01 09:45:33;;;;;;;4.55;2.70;;;;;;;19.69;36.08;103010.13;1772671;80;21018;-50
2021/10/01 09:48:05;;;;;;;4.35;2.72;;;;;;;19.72;36.54;103011.39;1774446;80;20966;-47
2021/10/01 09:50:32;;;;;;;3.72;2.45;;;;;;;19.75;36.79;103008.66;1772679;80;21049;-53
2021/10/01 09:53:05;;;;;;;3.33;2.58;;;;;;;19.76;36.23;103014.38;1768849;80;20977;-50
2021/10/01 09:55:41;;;;;;;3.17;2.27;;;;;;;19.77;36.32;103007.73;1700803;83;21576;-51
2021/10/01 09:58:14;;;;;;;5.15;2.62;;;;;;;19.79;36.06;103009.00;1697514;83;21047;-50
2021/10/01 10:00:49;;;;;;;2.92;2.62;;;;;;;19.82;36.47;103007.62;1697880;83;21538;-48
2021/10/01 10:03:29;;;;;;;12.47;3.27;;;;;;;19.85;36.60;103011.05;1704786;83;21538;-47
2021/10/01 10:06:06;;;;;;;5.60;2.80;;;;;;;19.88;36.14;103002.19;1703805;83;21575;-49
2021/10/01 10:08:41;;;;;;;5.95;2.65;;;;;;;19.90;35.68;103004.33;1704276;83;21602;-50
2021/10/01 10:11:13;;;;;;;3.50;2.70;;;;;;;19.90;35.80;103006.98;1630907;87;21526;-48
2021/10/01 10:13:54;;;;;;;29.42;4.40;;;;;;;19.92;35.82;103003.84;1630864;87;21114;-49
2021/10/01 10:16:27;;;;;;;6.00;3.17;;;;;;;19.93;35.94;103006.44;1636708;87;21038;-47
2021/10/01 10:19:01;;;;;;;3.80;2.80;;;;;;;19.96;35.76;103004.18;1629611;87;21570;-50
2021/10/01 10:21:29;;;;;;;6.87;2.62;;;;;;;19.99;35.38;102998.35;1574730;90;21162;-51
2021/10/01 10:23:57;;;;;;;6.83;2.55;;;;;;;20.03;35.63;103005.77;1574722;90;21590;-51
2021/10/01 10:26:25;;;;;;;2.65;2.45;;;;;;;20.05;35.05;103003.95;1574057;90;21070;-50
2021/10/01 10:29:02;;;;;;;2.87;2.30;;;;;;;20.06;35.04;103001.71;1574882;90;21062;-50
2021/10/01 10:31:31;;;;;;;6.17;2.90;;;;;;;20.06;35.03;103005.67;1579893;90;21054;-50
2021/10/01 10:33:58;;;;;;;23.42;5.17;;;;;;;20.06;34.95;103001.71;1573788;90;21117;-48
2021/10/01 10:36:44;;;;;;;15.35;4.37;;;;;;;20.06;35.01;102999.95;1572813;90;21098;-50
2021/10/01 10:39:17;;;;;;;27.10;5.20;;;;;;;20.08;34.87;102994.61;1580153;90;21106;-48
2021/10/01 10:42:01;;;;;;;27.93;5.35;;;;;;;20.13;35.70;102994.05;1575240;90;21109;-47
2021/10/01 10:44:44;;;;;;;6.97;3.40;;;;;;;20.16;35.89;102995.28;1575565;90;21032;-49
2021/10/01 10:47:14;;;;;;;5.20;2.58;;;;;;;20.20;35.60;102994.32;1499787;95;21143;-51
2021/10/01 10:49:40;;;;;;;17.77;5.70;;;;;;;20.23;35.44;102988.97;1486501;96;21096;-47
2021/10/01 10:52:17;;;;;;;72.00;10.28;;;;;;;20.25;34.95;102987.16;1499288;95;21095;-49
2021/10/01 10:54:52;;;;;;;14.95;4.45;;;;;;;20.24;34.74;102990.23;1565684;91;21144;-49
2021/10/01 10:57:28;;;;;;;145.95;21.48;;;;;;;20.25;34.94;102985.83;1565420;91;21109;-47
2021/10/01 11:00:01;;;;;;;29.02;6.60;;;;;;;20.24;34.52;102985.40;1555464;91;21054;-49
2021/10/01 11:02:46;;;;;;;8.00;3.37;;;;;;;20.21;34.58;102988.14;1555062;91;21110;-50
2021/10/01 11:05:26;;;;;;;4.40;3.00;;;;;;;20.21;35.13;102984.17;1555276;91;21062;-49
2021/10/01 11:08:01;;;;;;;4.20;2.72;;;;;;;20.22;35.01;102981.93;1555089;91;21122;-48
2021/10/01 11:10:39;;;;;;;2.60;2.40;;;;;;;20.23;34.58;102981.03;1555179;91;21638;-49
2021/10/01 11:13:24;;;;;;;12.50;2.83;;;;;;;20.21;34.13;102978.89;1555204;91;21079;-49
2021/10/01 11:16:16;;;;;;;3.15;2.50;;;;;;;20.24;34.30;102982.76;1555313;91;21117;-47
2021/10/01 11:18:48;;;;;;;4.12;2.50;;;;;;;20.24;33.73;102977.47;1623397;87;21071;-50
2021/10/01 11:24:21;;;;;;;7.45;2.37;;;;;;;20.22;33.81;102969.59;1637793;84;21069;-49
2021/10/01 11:26:54;;;;;;;4.08;2.85;;;;;;;20.24;33.92;102969.09;1663025;86;21042;-50
2021/10/01 11:29:33;;;;;;;3.47;2.62;;;;;;;20.28;33.97;102969.86;1662973;86;21521;-49
2021/10/01 11:32:10;;;;;;;4.00;2.55;;;;;;;20.31;34.20;102973.77;1662712;86;21530;-47
2021/10/01 11:34:42;;;;;;;3.62;2.37;;;;;;;20.35;34.11;102974.53;1659342;86;21590;-49
2021/10/01 11:37:43;;;;;;;7.75;2.65;;;;;;;20.38;34.34;102972.67;1630787;88;21041;-49
2021/10/01 11:40:21;;;;;;;3.75;2.50;;;;;;;20.38;33.85;102973.98;1619405;89;21029;-47
2021/10/01 11:42:52;;;;;;;3.55;2.42;;;;;;;20.39;33.71;102969.13;1619296;89;21074;-49
2021/10/01 11:45:34;;;;;;;4.15;1.85;;;;;;;20.41;33.30;102969.95;1619286;89;21144;-50
2021/10/01 11:48:09;;;;;;;2.90;2.45;;;;;;;20.42;32.67;102974.35;1662856;86;21622;-47
2021/10/01 11:50:46;;;;;;;3.08;2.20;;;;;;;20.43;32.50;102968.13;1662976;86;21466;-50
2021/10/01 11:53:26;;;;;;;3.40;2.10;;;;;;;20.45;32.56;102972.92;1620266;87;21083;-49
2021/10/01 11:56:01;;;;;;;3.25;2.30;;;;;;;20.47;32.41;102968.91;1620546;87;21115;-49
2021/10/01 11:58:31;;;;;;;3.17;2.50;;;;;;;20.45;32.39;102974.25;1624495;88;21115;-51
2021/10/01 12:01:14;;;;;;;3.80;2.67;;;;;;;20.45;32.17;102971.60;1624525;88;21073;-49
2021/10/01 12:03:53;;;;;;;7.45;3.80;;;;;;;20.45;32.38;102968.08;1624483;88;21060;-48
2021/10/01 12:06:21;;;;;;;4.60;3.62;;;;;;;20.46;32.47;102968.52;1572446;91;21115;-50
2021/10/01 12:09:00;;;;;;;3.40;2.10;;;;;;;20.46;32.25;102965.42;1572484;91;21068;-50
2021/10/01 12:11:33;;;;;;;5.72;2.45;;;;;;;20.45;31.77;102959.70;1572542;91;21104;-48
2021/10/01 12:14:12;;;;;;;4.05;2.58;;;;;;;20.42;32.12;102957.61;1548921;93;21094;-47
2021/10/01 12:16:41;;;;;;;6.17;2.75;;;;;;;20.41;32.41;102956.73;1549006;92;21779;-47
2021/10/01 12:19:10;;;;;;;2.35;2.15;;;;;;;20.42;32.31;102949.23;1548850;92;21081;-50
2021/10/01 12:21:37;;;;;;;2.70;2.50;;;;;;;20.45;32.27;102953.09;1586391;90;21598;-48
2021/10/01 12:24:11;;;;;;;30.43;22.95;;;;;;;20.49;32.54;102949.45;1595371;90;21078;-50
2021/10/01 12:26:41;;;;;;;6.87;6.17;;;;;;;20.50;32.08;102948.55;1576235;90;21089;-50
2021/10/01 12:29:15;;;;;;;8.30;4.60;;;;;;;20.49;31.70;102953.41;1569659;91;21129;-50
2021/10/01 12:31:52;;;;;;;3.77;3.10;;;;;;;20.50;31.90;102950.33;1567892;91;21064;-50
2021/10/01 12:34:28;;;;;;;3.10;2.60;;;;;;;20.50;32.07;102949.88;1559425;91;21029;-50
2021/10/01 12:37:05;;;;;;;4.15;2.65;;;;;;;20.52;32.29;102945.41;1568283;91;21072;-48
2021/10/01 12:39:36;;;;;;;5.33;2.37;;;;;;;20.55;32.50;102937.38;1558534;91;21648;-50
2021/10/01 12:42:06;;;;;;;5.17;2.72;;;;;;;20.55;32.83;102940.02;1571447;91;21069;-50
2021/10/01 12:44:39;;;;;;;4.20;2.58;;;;;;;20.56;32.39;102932.95;1569513;90;21036;-50
2021/10/01 12:47:16;;;;;;;4.33;3.08;;;;;;;20.56;32.43;102924.57;1566114;91;21572;-51
2021/10/01 12:49:57;;;;;;;4.30;3.47;;;;;;;20.56;32.06;102927.22;1584144;89;21069;-50
2021/10/01 12:52:25;;;;;;;4.53;2.90;;;;;;;20.54;32.24;102926.39;1557615;90;21093;-50
2021/10/01 12:54:59;;;;;;;4.72;3.62;;;;;;;20.52;32.47;102921.61;1557376;90;21121;-51
2021/10/01 12:57:36;;;;;;;5.40;3.42;;;;;;;20.52;32.81;102922.93;1558533;90;21078;-48
2021/10/01 13:00:08;;;;;;;7.00;4.22;;;;;;;20.53;32.64;102920.67;1557530;90;21553;-50
2021/10/01 13:05:14;;;;;;;5.37;3.27;;;;;;;20.53;32.04;102920.67;1551453;90;20501;-48
2021/10/01 13:07:50;;;;;;;9.20;6.37;;;;;;;20.51;32.21;102915.02;1554667;90;21090;-49
2021/10/01 13:10:31;;;;;;;5.90;3.58;;;;;;;20.50;32.62;102914.17;1562660;90;21060;-48
2021/10/01 13:13:22;;;;;;;4.53;3.70;;;;;;;20.49;32.61;102912.42;1562584;90;21092;-50
2021/10/01 13:16:01;;;;;;;4.05;3.25;;;;;;;20.49;32.82;102909.77;1560239;91;21606;-47
2021/10/01 13:18:38;;;;;;;9.10;4.37;;;;;;;20.50;33.14;102910.65;1519374;93;21106;-50